Time;durP1;ratioP1;P1;durP2;ratioP2;P2;SDS_P1;SDS_P2;PMS_P1;PMS_P2;Temp;Humidity;BMP_temperature;BMP_pressure;BME280_temperature;BME280_humidity;BME280_pressure;Samples;Min_cycle;Max_cycle;Signal;HPM_P1;HPM_P2
2022/05/14 00:00:28;;;;;;;4.20;2.35;;;;;;;13.60;97.71;100587.97;4973157;28;20781;-67
2022/05/14 00:02:55;;;;;;;4.75;2.05;;;;;;;13.63;98.33;100587.84;4973112;28;20401;-67
2022/05/14 00:05:22;;;;;;;4.15;2.15;;;;;;;13.64;98.06;100594.06;4975548;28;20383;-67
2022/05/14 00:07:50;;;;;;;4.10;2.45;;;;;;;13.61;98.38;100596.81;4972250;28;20054;-67
2022/05/14 00:10:17;;;;;;;4.90;2.30;;;;;;;13.62;98.82;100593.25;4974192;28;20033;-67
2022/05/14 00:15:26;;;;;;;5.22;2.10;;;;;;;13.50;99.18;100585.66;4971472;28;20410;-67
2022/05/14 00:17:54;;;;;;;4.53;2.10;;;;;;;13.44;99.33;100583.22;4957622;28;20027;-67
2022/05/14 00:20:20;;;;;;;3.88;2.10;;;;;;;13.38;99.20;100586.09;4951246;28;20031;-67
2022/05/14 00:22:45;;;;;;;4.53;2.13;;;;;;;13.29;99.64;100579.28;4952874;29;20090;-67
2022/05/14 00:25:11;;;;;;;3.92;2.25;;;;;;;13.17;99.94;100569.88;4953511;29;20027;-67
2022/05/14 00:27:42;;;;;;;4.95;2.40;;;;;;;13.20;99.79;100585.81;4953432;29;20535;-67
2022/05/14 00:30:08;;;;;;;4.38;1.92;;;;;;;13.07;99.75;100568.44;4960544;28;20062;-67
2022/05/14 00:32:35;;;;;;;4.97;3.00;;;;;;;13.11;100.00;100578.09;4972751;28;20062;-67
2022/05/14 00:35:00;;;;;;;5.18;2.42;;;;;;;13.15;100.00;100579.75;4972740;28;20498;-67
2022/05/14 00:37:26;;;;;;;5.13;2.33;;;;;;;13.17;100.00;100575.22;4972450;28;20031;-67
2022/05/14 00:39:51;;;;;;;4.03;2.85;;;;;;;13.16;100.00;100580.63;4972738;28;20489;-67
2022/05/14 00:42:18;;;;;;;4.97;2.35;;;;;;;13.16;100.00;100578.81;4972397;28;20072;-67
2022/05/14 00:44:43;;;;;;;4.00;2.40;;;;;;;13.18;100.00;100590.31;4971061;28;20027;-67
2022/05/14 00:47:16;;;;;;;5.03;2.15;;;;;;;13.24;100.00;100579.41;4972248;28;20061;-67
2022/05/14 00:49:42;;;;;;;4.18;2.30;;;;;;;13.29;100.00;100581.06;4973856;28;20026;-67
2022/05/14 00:52:13;;;;;;;5.22;2.75;;;;;;;13.41;100.00;100581.50;4973214;28;20030;-67
2022/05/14 00:54:46;;;;;;;4.20;2.38;;;;;;;13.46;100.00;100578.69;4971124;28;20023;-68
2022/05/14 00:57:17;;;;;;;5.28;2.40;;;;;;;13.48;100.00;100579.47;4970920;28;20041;-68
2022/05/14 00:59:43;;;;;;;5.20;2.38;;;;;;;13.44;100.00;100569.84;4973441;28;20117;-68
2022/05/14 01:02:08;;;;;;;6.22;2.83;;;;;;;13.44;100.00;100580.53;4953425;28;20495;-68
2022/05/14 01:04:34;;;;;;;4.68;2.17;;;;;;;13.34;100.00;100576.44;4970909;28;20027;-68
2022/05/14 01:07:06;;;;;;;4.82;2.20;;;;;;;13.38;100.00;100583.44;4970710;28;20581;-68
2022/05/14 01:09:33;;;;;;;5.22;2.25;;;;;;;13.34;100.00;100584.44;4970770;28;20072;-68
2022/05/14 01:11:59;;;;;;;3.53;2.30;;;;;;;13.21;100.00;100578.66;4971476;28;20110;-68
2022/05/14 01:14:24;;;;;;;3.58;2.28;;;;;;;13.11;100.00;100571.91;4972046;28;20105;-68
2022/05/14 01:16:51;;;;;;;3.75;2.05;;;;;;;13.05;100.00;100575.63;4966493;28;20038;-68
2022/05/14 01:19:17;;;;;;;5.20;2.45;;;;;;;12.94;100.00;100576.88;4952835;29;20057;-68
2022/05/14 01:21:54;;;;;;;4.35;2.25;;;;;;;12.97;100.00;100577.66;4952739;29;20031;-68
2022/05/14 01:27:25;;;;;;;4.30;2.78;;;;;;;12.94;100.00;100580.44;4951909;29;20063;-68
2022/05/14 01:29:51;;;;;;;4.20;2.10;;;;;;;12.95;100.00;100571.50;4957209;28;20026;-68
2022/05/14 01:32:16;;;;;;;6.22;2.47;;;;;;;13.00;100.00;100574.88;4973577;28;20027;-68
2022/05/14 01:34:43;;;;;;;3.15;1.83;;;;;;;12.89;100.00;100582.38;4975587;28;20574;-68
2022/05/14 01:37:10;;;;;;;7.03;2.28;;;;;;;12.81;100.00;100572.88;4973756;28;20105;-68
2022/05/14 01:39:36;;;;;;;4.47;2.00;;;;;;;12.75;100.00;100573.94;4975964;28;20026;-68
2022/05/14 01:42:02;;;;;;;4.78;2.88;;;;;;;12.73;100.00;100569.59;4975879;28;20042;-67
2022/05/14 01:44:28;;;;;;;5.80;2.25;;;;;;;12.68;100.00;100567.06;4975521;28;20035;-68
2022/05/14 01:46:53;;;;;;;4.55;2.00;;;;;;;12.56;100.00;100567.47;4974474;28;20061;-68
2022/05/14 01:49:19;;;;;;;8.00;2.58;;;;;;;12.48;100.00;100573.94;4973878;28;20406;-68
2022/05/14 01:51:44;;;;;;;3.03;2.10;;;;;;;12.38;100.00;100554.69;4973786;28;20031;-68
2022/05/14 01:54:10;;;;;;;2.85;2.00;;;;;;;12.43;100.00;100563.44;4974352;28;20037;-68
2022/05/14 01:56:36;;;;;;;3.75;2.05;;;;;;;12.44;100.00;100556.28;4973266;28;20022;-68
2022/05/14 01:59:02;;;;;;;4.57;2.22;;;;;;;12.43;100.00;100551.88;4976768;28;20677;-68
2022/05/14 02:01:33;;;;;;;5.10;2.60;;;;;;;12.44;100.00;100550.94;4975070;28;20427;-68
2022/05/14 02:04:04;;;;;;;3.75;1.98;;;;;;;12.53;100.00;100572.00;4975405;28;20035;-68
2022/05/14 02:06:30;;;;;;;5.25;2.38;;;;;;;12.43;100.00;100558.09;4974957;28;20027;-68
2022/05/14 02:08:57;;;;;;;6.35;2.40;;;;;;;12.15;100.00;100527.88;4974010;28;20482;-68
2022/05/14 02:11:23;;;;;;;4.75;2.08;;;;;;;12.30;100.00;100578.06;4975166;28;20429;-68
2022/05/14 02:13:50;;;;;;;3.85;2.10;;;;;;;12.27;100.00;100580.84;4975239;28;20101;-68
2022/05/14 02:16:17;;;;;;;3.22;2.08;;;;;;;12.11;100.00;100576.84;4957511;28;20030;-68
2022/05/14 02:18:42;;;;;;;4.07;2.47;;;;;;;12.07;100.00;100577.88;4977721;28;20029;-68
2022/05/14 02:21:09;;;;;;;3.30;2.03;;;;;;;11.92;100.00;100567.66;4975106;28;20034;-68
2022/05/14 02:23:37;;;;;;;3.67;1.88;;;;;;;11.99;100.00;100577.25;4975079;28;20041;-68
2022/05/14 02:26:04;;;;;;;5.47;2.70;;;;;;;12.05;100.00;100582.38;4975174;28;20534;-68
2022/05/14 02:28:30;;;;;;;4.28;2.38;;;;;;;12.12;100.00;100580.41;4974778;28;20240;-68
2022/05/14 02:30:55;;;;;;;7.45;2.45;;;;;;;12.13;100.00;100567.03;4974874;28;20038;-68
2022/05/14 02:33:21;;;;;;;6.70;3.03;;;;;;;12.33;100.00;100580.63;4973644;28;20498;-68
2022/05/14 02:35:46;;;;;;;8.60;2.72;;;;;;;12.35;100.00;100562.81;4975178;28;20027;-68
2022/05/14 02:38:12;;;;;;;3.92;2.28;;;;;;;12.42;100.00;100582.16;4974855;28;20389;-68
2022/05/14 02:40:38;;;;;;;5.78;3.03;;;;;;;12.46;100.00;100586.47;4974865;28;20069;-68
2022/05/14 02:43:04;;;;;;;7.57;2.83;;;;;;;12.45;100.00;100577.59;4973707;28;20470;-68
2022/05/14 02:45:29;;;;;;;5.35;3.10;;;;;;;12.44;100.00;100577.63;4974410;28;20401;-67
2022/05/14 02:47:54;;;;;;;5.28;2.83;;;;;;;12.40;100.00;100582.22;4973440;28;20053;-67
2022/05/14 02:50:20;;;;;;;6.00;2.78;;;;;;;12.47;100.00;100574.88;4979075;28;20038;-67
2022/05/14 02:52:46;;;;;;;7.93;3.10;;;;;;;12.46;100.00;100581.13;4974447;28;20042;-67
2022/05/14 02:55:12;;;;;;;5.07;2.63;;;;;;;12.39;100.00;100577.78;4974733;28;20398;-67
2022/05/14 02:57:37;;;;;;;4.85;2.45;;;;;;;12.27;100.00;100572.84;4974474;28;20506;-67
2022/05/14 03:00:09;;;;;;;5.82;2.97;;;;;;;12.27;100.00;100572.84;4974586;28;20023;-67
2022/05/14 03:02:35;;;;;;;5.45;2.42;;;;;;;12.20;100.00;100552.59;4974207;28;20117;-67
2022/05/14 03:05:01;;;;;;;4.10;2.95;;;;;;;12.15;100.00;100557.19;4955447;28;20034;-67
2022/05/14 03:07:26;;;;;;;4.43;2.55;;;;;;;12.16;100.00;100574.09;4972844;28;20027;-67
2022/05/14 03:09:52;;;;;;;6.63;2.60;;;;;;;12.06;100.00;100573.47;4972854;28;20449;-67
2022/05/14 03:12:21;;;;;;;4.75;2.80;;;;;;;12.00;100.00;100556.78;4971202;28;20078;-67
2022/05/14 03:14:48;;;;;;;4.88;2.10;;;;;;;11.99;100.00;100557.69;4972781;28;20026;-67
2022/05/14 03:17:15;;;;;;;3.55;2.38;;;;;;;12.06;100.00;100576.13;4963980;28;20074;-67
2022/05/14 03:19:40;;;;;;;4.10;2.20;;;;;;;12.04;100.00;100567.31;4954523;29;20513;-68
2022/05/14 03:22:06;;;;;;;3.90;2.50;;;;;;;11.99;100.00;100571.03;4954723;29;20023;-68
2022/05/14 03:24:32;;;;;;;3.45;1.92;;;;;;;11.82;100.00;100553.75;4954714;29;20063;-68
2022/05/14 03:26:57;;;;;;;3.72;2.10;;;;;;;11.92;100.00;100567.66;4954529;29;20500;-68
2022/05/14 03:29:22;;;;;;;5.97;3.15;;;;;;;11.94;100.00;100560.50;4960510;28;20585;-68
2022/05/14 03:31:48;;;;;;;5.45;2.67;;;;;;;12.04;100.00;100569.09;4972148;28;20042;-68
2022/05/14 03:34:14;;;;;;;14.35;2.63;;;;;;;12.10;100.00;100571.56;4956253;28;20026;-68
2022/05/14 03:36:41;;;;;;;7.53;2.63;;;;;;;12.13;100.00;100561.69;4973944;28;20280;-68
2022/05/14 03:39:07;;;;;;;4.65;2.33;;;;;;;12.17;100.00;100570.47;4973066;28;20379;-68
2022/05/14 03:41:33;;;;;;;7.05;2.80;;;;;;;11.94;100.00;100548.03;4972273;28;20035;-69
2022/05/14 03:43:59;;;;;;;4.82;2.20;;;;;;;11.99;100.00;100561.25;4971803;28;20031;-68
2022/05/14 03:46:24;;;;;;;6.05;2.53;;;;;;;11.93;100.00;100564.06;4971716;28;20042;-68
2022/05/14 03:48:50;;;;;;;4.53;2.28;;;;;;;11.83;100.00;100574.13;4971557;28;20054;-68
2022/05/14 03:51:16;;;;;;;6.07;2.50;;;;;;;11.73;100.00;100575.31;4972031;28;20030;-68
2022/05/14 03:53:41;;;;;;;5.20;2.67;;;;;;;11.59;100.00;100563.28;4971569;28;20078;-68
2022/05/14 03:56:07;;;;;;;4.45;2.28;;;;;;;11.61;100.00;100572.09;4972077;28;20030;-68
2022/05/14 03:58:33;;;;;;;5.68;2.40;;;;;;;11.63;100.00;100575.59;4973358;28;20044;-68
2022/05/14 04:00:59;;;;;;;8.18;3.00;;;;;;;11.56;100.00;100574.91;4973391;28;20034;-68
2022/05/14 04:03:25;;;;;;;4.68;2.95;;;;;;;11.68;100.00;100573.69;4972549;28;20022;-68
2022/05/14 04:05:50;;;;;;;5.70;2.70;;;;;;;11.57;100.00;100565.97;4971891;28;20573;-68
2022/05/14 04:08:17;;;;;;;6.00;3.00;;;;;;;11.53;100.00;100560.78;4971341;28;20030;-68
2022/05/14 04:10:45;;;;;;;5.82;2.47;;;;;;;11.60;100.00;100573.00;4972935;28;20123;-68
2022/05/14 04:13:14;;;;;;;5.82;2.50;;;;;;;11.61;100.00;100578.28;4967332;28;20026;-68
2022/05/14 04:15:40;;;;;;;4.72;3.05;;;;;;;11.67;100.00;100582.59;4970596;28;20114;-68
2022/05/14 04:18:06;;;;;;;9.13;4.60;;;;;;;11.69;100.00;100580.78;4954801;28;20118;-67
2022/05/14 04:20:31;;;;;;;4.70;2.78;;;;;;;11.69;100.00;100583.44;4952134;29;20039;-67
2022/05/14 04:22:57;;;;;;;8.40;3.40;;;;;;;11.73;100.00;100583.31;4952361;29;20039;-67
2022/05/14 04:25:23;;;;;;;15.95;6.60;;;;;;;11.81;100.00;100585.78;4953380;29;20038;-67
2022/05/14 04:27:49;;;;;;;20.33;7.45;;;;;;;11.73;100.00;100577.09;4953387;29;20055;-67
2022/05/14 04:30:15;;;;;;;20.48;7.82;;;;;;;11.81;100.00;100580.44;4961638;28;20430;-67
2022/05/14 04:32:41;;;;;;;14.02;6.40;;;;;;;11.82;100.00;100590.19;4972724;28;20027;-67
2022/05/14 04:35:07;;;;;;;15.48;6.05;;;;;;;11.82;100.00;100582.19;4971238;28;20058;-67
2022/05/14 04:37:34;;;;;;;9.95;4.93;;;;;;;11.87;100.00;100580.25;4972756;28;20033;-67
2022/05/14 04:40:00;;;;;;;15.43;6.20;;;;;;;11.97;100.00;100581.75;4972552;28;20028;-67
2022/05/14 04:42:25;;;;;;;12.98;5.45;;;;;;;12.05;100.00;100584.16;4975195;28;20041;-67
2022/05/14 04:44:51;;;;;;;10.63;5.93;;;;;;;12.20;100.00;100579.28;4974609;28;20457;-67
2022/05/14 04:47:17;;;;;;;16.20;6.03;;;;;;;12.32;100.00;100588.69;4972362;28;20081;-67
2022/05/14 04:49:47;;;;;;;10.35;5.57;;;;;;;12.40;100.00;100592.88;4955453;28;20062;-68
2022/05/14 04:52:12;;;;;;;9.27;4.28;;;;;;;12.52;100.00;100586.28;4972384;28;20039;-68
2022/05/14 04:54:39;;;;;;;8.82;4.30;;;;;;;12.67;100.00;100593.78;4972037;28;20027;-68
2022/05/14 04:57:05;;;;;;;7.47;4.00;;;;;;;12.82;100.00;100591.50;4972451;28;20397;-68
2022/05/14 04:59:31;;;;;;;9.48;3.47;;;;;;;12.90;100.00;100596.59;4972384;28;20235;-68
2022/05/14 05:04:42;;;;;;;5.63;3.30;;;;;;;13.05;99.56;100594.31;4971989;28;20030;-69
2022/05/14 05:07:07;;;;;;;3.85;2.72;;;;;;;13.16;98.00;100591.31;4971684;28;20034;-68
2022/05/14 05:09:33;;;;;;;8.88;3.10;;;;;;;13.38;98.33;100586.09;4972200;28;20023;-68
2022/05/14 05:11:59;;;;;;;6.30;2.83;;;;;;;13.35;97.40;100570.16;4972288;28;20538;-69
2022/05/14 05:14:25;;;;;;;4.53;2.78;;;;;;;13.56;96.62;100591.66;4972001;28;20526;-69
2022/05/14 05:16:50;;;;;;;7.57;2.80;;;;;;;13.70;96.22;100599.19;4966503;28;20047;-69
2022/05/14 05:19:17;;;;;;;8.75;3.28;;;;;;;13.86;95.60;100595.91;4953304;29;20031;-69
2022/05/14 05:21:43;;;;;;;4.78;2.65;;;;;;;14.00;94.55;100592.72;4952690;29;20440;-69
2022/05/14 05:24:09;;;;;;;4.20;2.67;;;;;;;14.14;93.53;100595.75;4952500;29;20015;-69
2022/05/14 05:26:35;;;;;;;5.43;2.65;;;;;;;14.28;93.57;100593.47;4953618;28;20041;-68
2022/05/14 05:29:01;;;;;;;6.25;2.80;;;;;;;14.41;93.08;100590.22;4966549;28;20030;-68
2022/05/14 05:31:27;;;;;;;4.60;3.30;;;;;;;14.50;92.51;100589.88;4971999;28;20363;-69
2022/05/14 05:33:53;;;;;;;4.47;2.55;;;;;;;14.77;92.30;100598.63;4970290;28;20045;-69
2022/05/14 05:36:18;;;;;;;5.80;3.35;;;;;;;15.09;88.97;100600.84;4972044;28;20037;-69
2022/05/14 05:38:43;;;;;;;3.83;2.10;;;;;;;15.17;87.31;100604.06;4971898;28;20022;-68
2022/05/14 05:41:09;;;;;;;3.85;2.58;;;;;;;15.19;86.58;100612.91;4970556;28;20110;-68
2022/05/14 05:43:34;;;;;;;5.90;2.72;;;;;;;15.20;86.68;100613.81;4971546;28;20055;-68
2022/05/14 05:46:00;;;;;;;8.65;2.67;;;;;;;15.10;85.25;100610.63;4972055;28;20038;-68
2022/05/14 05:48:25;;;;;;;5.10;2.65;;;;;;;15.01;84.73;100597.59;4971209;28;20046;-68
2022/05/14 05:50:51;;;;;;;6.45;2.28;;;;;;;15.19;84.27;100612.91;4963234;28;20031;-68
2022/05/14 05:53:17;;;;;;;5.13;2.88;;;;;;;15.33;85.21;100598.94;4969023;28;20106;-68
2022/05/14 05:58:28;;;;;;;5.45;2.88;;;;;;;15.64;83.33;100605.63;4970636;28;20097;-68
2022/05/14 06:00:53;;;;;;;4.97;2.70;;;;;;;15.77;82.15;100611.31;4970563;28;20093;-68
2022/05/14 06:03:19;;;;;;;5.05;2.65;;;;;;;15.98;82.45;100598.78;4969659;28;20493;-68
2022/05/14 06:05:44;;;;;;;5.30;2.88;;;;;;;16.06;79.53;100610.03;4962073;28;20019;-68
2022/05/14 06:08:15;;;;;;;5.70;2.20;;;;;;;16.12;78.40;100610.63;4951719;28;20043;-68
2022/05/14 06:10:41;;;;;;;5.05;2.30;;;;;;;16.17;78.70;100610.41;4955715;28;20066;-68
2022/05/14 06:13:08;;;;;;;5.75;2.20;;;;;;;16.35;77.86;100609.53;4990293;28;20033;-68
2022/05/14 06:15:34;;;;;;;7.65;2.17;;;;;;;16.55;78.26;100604.16;4979196;28;20055;-68
2022/05/14 06:18:06;;;;;;;3.25;2.33;;;;;;;16.73;77.02;100614.00;4963485;28;20048;-68
2022/05/14 06:20:31;;;;;;;4.72;2.03;;;;;;;16.87;75.59;100619.56;4975090;28;20489;-68
2022/05/14 06:22:57;;;;;;;4.15;2.03;;;;;;;16.82;74.83;100608.19;4974704;28;20105;-68
2022/05/14 06:25:23;;;;;;;4.32;2.35;;;;;;;16.98;74.63;100617.25;4974504;28;20457;-68
2022/05/14 06:27:49;;;;;;;4.35;2.50;;;;;;;17.19;75.87;100613.50;4975084;28;20452;-68
2022/05/14 06:30:15;;;;;;;4.82;2.38;;;;;;;17.44;74.68;100616.69;4974766;28;20022;-68
2022/05/14 06:32:41;;;;;;;5.00;3.17;;;;;;;17.67;73.32;100613.72;4974734;28;20026;-68
2022/05/14 06:35:09;;;;;;;4.90;2.47;;;;;;;17.86;72.30;100616.31;4972026;28;20022;-68
2022/05/14 06:37:34;;;;;;;6.20;3.78;;;;;;;17.99;71.17;100618.28;4973306;28;20027;-68
2022/05/14 06:40:00;;;;;;;5.30;2.80;;;;;;;18.16;69.78;100629.00;4979950;28;20029;-68
2022/05/14 06:42:26;;;;;;;6.88;2.28;;;;;;;18.40;70.32;100624.16;4982265;28;20049;-68
2022/05/14 06:44:52;;;;;;;3.35;2.30;;;;;;;18.69;69.63;100623.41;4981283;28;20026;-68
2022/05/14 06:47:18;;;;;;;6.03;2.33;;;;;;;18.89;68.47;100614.19;4981484;28;20366;-68
2022/05/14 06:49:44;;;;;;;7.18;2.90;;;;;;;19.23;66.98;100630.16;4986935;28;20022;-68
2022/05/14 06:52:15;;;;;;;4.93;2.42;;;;;;;19.43;64.97;100621.81;4993392;28;20041;-68
2022/05/14 06:54:42;;;;;;;4.80;2.05;;;;;;;19.48;64.38;100627.81;4990378;28;20033;-68
2022/05/14 06:57:09;;;;;;;5.03;2.25;;;;;;;19.59;64.02;100622.63;4991677;28;20454;-68
2022/05/14 06:59:34;;;;;;;4.78;2.10;;;;;;;19.74;63.59;100627.09;4971524;28;20058;-68
2022/05/14 07:02:01;;;;;;;4.97;2.20;;;;;;;19.97;63.68;100631.97;4972777;28;20034;-68
2022/05/14 07:07:11;;;;;;;5.80;1.60;;;;;;;20.50;61.32;100618.72;4971924;28;20683;-68
2022/05/14 07:09:37;;;;;;;11.23;1.98;;;;;;;20.75;60.16;100629.72;4972127;28;20338;-68
2022/05/14 07:12:08;;;;;;;4.20;1.70;;;;;;;21.00;60.88;100630.84;4972493;28;20435;-68
2022/05/14 07:14:34;;;;;;;5.70;1.10;;;;;;;21.23;58.64;100633.78;4971960;28;20023;-68
2022/05/14 07:16:59;;;;;;;2.35;1.35;;;;;;;21.44;56.36;100629.63;4964249;28;20470;-68
2022/05/14 07:19:25;;;;;;;4.82;1.92;;;;;;;21.77;54.94;100631.91;4959460;28;20026;-68
2022/05/14 07:21:53;;;;;;;2.22;1.08;;;;;;;22.03;55.28;100628.25;4960096;28;20035;-68
2022/05/14 07:24:28;;;;;;;2.67;1.45;;;;;;;22.36;53.05;100631.31;4969119;28;20383;-68
2022/05/14 07:26:56;;;;;;;3.08;1.60;;;;;;;22.46;50.94;100631.50;4955877;28;20035;-68
2022/05/14 07:29:24;;;;;;;4.25;1.23;;;;;;;22.55;51.45;100631.78;4952675;28;20082;-68
2022/05/14 07:31:49;;;;;;;2.95;1.23;;;;;;;22.68;49.90;100638.03;4973290;28;20026;-68
2022/05/14 07:34:15;;;;;;;5.32;1.48;;;;;;;23.11;48.56;100631.16;4955911;28;20383;-68
2022/05/14 07:37:10;;;;;;;3.72;1.20;;;;;;;23.71;48.54;100624.81;4972812;28;20069;-68
2022/05/14 07:39:55;;;;;;;2.50;1.00;;;;;;;24.05;47.84;100621.28;4938796;28;20043;-68
2022/05/14 07:42:29;;;;;;;3.97;1.45;;;;;;;24.43;47.92;100619.13;4971750;28;20030;-68
2022/05/14 07:44:56;;;;;;;2.50;1.25;;;;;;;25.01;46.20;100621.56;4971997;28;20474;-68
2022/05/14 07:47:22;;;;;;;3.17;1.63;;;;;;;25.45;45.17;100624.19;4971640;28;20062;-68
2022/05/14 07:49:49;;;;;;;2.92;1.38;;;;;;;25.84;45.09;100622.66;4971966;28;20041;-68
2022/05/14 07:52:15;;;;;;;1.77;1.08;;;;;;;26.16;44.45;100623.50;4958143;28;20027;-68
2022/05/14 07:54:41;;;;;;;3.35;1.00;;;;;;;26.40;43.32;100615.03;4952371;28;20031;-68
2022/05/14 07:57:07;;;;;;;3.17;1.42;;;;;;;26.52;42.85;100619.41;4952439;29;20066;-68
2022/05/14 07:59:35;;;;;;;1.45;0.90;;;;;;;26.61;42.37;100610.38;4954893;28;20110;-68
2022/05/14 08:02:05;;;;;;;4.13;1.52;;;;;;;26.44;41.29;100611.88;4971881;28;20574;-68
2022/05/14 08:04:32;;;;;;;1.17;0.82;;;;;;;26.48;41.02;100615.19;4968062;28;20035;-68
2022/05/14 08:06:58;;;;;;;2.67;1.02;;;;;;;26.75;40.33;100620.97;4972898;28;20027;-68
2022/05/14 08:09:23;;;;;;;1.60;0.80;;;;;;;26.96;40.52;100616.28;4969492;28;20507;-68
2022/05/14 08:11:49;;;;;;;1.65;0.82;;;;;;;26.89;38.55;100623.31;4973016;28;20038;-68
2022/05/14 08:14:15;;;;;;;3.85;0.93;;;;;;;26.99;39.37;100627.81;4974756;28;20019;-68
2022/05/14 08:16:40;;;;;;;1.98;1.05;;;;;;;26.97;39.55;100628.94;4968764;28;20493;-68
2022/05/14 08:19:06;;;;;;;4.88;0.93;;;;;;;27.13;39.98;100632.03;4970415;28;20142;-69
2022/05/14 08:24:31;;;;;;;1.73;0.90;;;;;;;27.24;37.38;100623.69;4959650;28;20162;-69
2022/05/14 08:27:01;;;;;;;4.50;1.27;;;;;;;26.97;38.03;100626.19;4971200;28;20545;-69
2022/05/14 08:29:26;;;;;;;4.30;0.93;;;;;;;26.75;38.82;100623.69;4972842;28;20042;-69
2022/05/14 08:31:52;;;;;;;1.63;0.77;;;;;;;27.33;39.09;100611.94;4958253;28;20636;-68
2022/05/14 08:34:18;;;;;;;2.35;1.02;;;;;;;27.96;38.34;100624.22;4953059;29;20120;-69
2022/05/14 08:36:43;;;;;;;3.08;0.82;;;;;;;27.96;36.25;100621.47;4970891;28;20035;-69
2022/05/14 08:39:10;;;;;;;3.67;0.93;;;;;;;28.36;36.74;100620.25;4972649;28;20030;-68
2022/05/14 08:41:39;;;;;;;3.60;1.15;;;;;;;28.09;38.33;100620.16;4971628;28;20030;-68
2022/05/14 08:44:25;;;;;;;2.33;0.70;;;;;;;28.63;37.92;100615.88;4972234;28;20339;-68
2022/05/14 08:47:03;;;;;;;1.75;0.60;;;;;;;28.62;35.86;100609.53;4967339;28;20112;-68
2022/05/14 08:49:35;;;;;;;3.70;0.93;;;;;;;28.75;36.85;100614.69;4970668;28;20497;-68
2022/05/14 08:52:04;;;;;;;2.00;0.43;;;;;;;28.75;34.04;100614.69;4970492;28;20034;-68
2022/05/14 08:54:32;;;;;;;4.00;0.80;;;;;;;29.27;34.37;100616.72;4968444;28;20026;-68
2022/05/14 08:57:11;;;;;;;2.25;0.77;;;;;;;28.77;33.75;100618.13;4987021;28;20022;-68
2022/05/14 08:59:39;;;;;;;2.38;0.60;;;;;;;28.61;33.31;100607.81;4987009;28;20027;-68
2022/05/14 09:02:15;;;;;;;0.95;0.63;;;;;;;28.59;32.68;100603.50;4970623;28;20033;-68
2022/05/14 09:04:40;;;;;;;0.75;0.40;;;;;;;28.70;32.37;100612.38;4970668;28;20035;-68
2022/05/14 09:07:06;;;;;;;2.78;0.60;;;;;;;29.06;32.99;100607.88;4970708;28;20475;-68
2022/05/14 09:09:32;;;;;;;4.65;0.80;;;;;;;28.93;32.34;100604.66;4970607;28;20030;-68
2022/05/14 09:12:02;;;;;;;1.40;0.63;;;;;;;29.15;32.80;100604.25;4970380;28;20033;-68
2022/05/14 09:14:34;;;;;;;2.88;1.20;;;;;;;28.68;31.94;100602.59;4967672;28;20656;-68
2022/05/14 09:17:02;;;;;;;1.75;0.70;;;;;;;29.03;29.77;100602.69;4963508;28;20117;-68
2022/05/14 09:19:39;;;;;;;3.60;0.60;;;;;;;28.99;31.96;100598.53;4972149;28;20512;-68
2022/05/14 09:22:26;;;;;;;0.93;0.57;;;;;;;28.70;31.15;100601.41;4970422;28;20031;-68
2022/05/14 09:25:06;;;;;;;4.63;0.73;;;;;;;28.76;31.87;100599.97;4970162;28;20042;-68
2022/05/14 09:27:40;;;;;;;1.25;0.60;;;;;;;28.87;32.73;100594.28;4970472;28;20486;-68
2022/05/14 09:30:10;;;;;;;3.17;0.63;;;;;;;29.36;32.41;100600.19;4970399;28;20031;-68
2022/05/14 09:32:42;;;;;;;4.10;0.75;;;;;;;29.18;32.98;100601.19;4970319;28;20019;-68
2022/05/14 09:35:17;;;;;;;1.63;0.47;;;;;;;29.34;32.33;100584.94;4954437;28;20038;-68
2022/05/14 09:37:43;;;;;;;1.80;0.70;;;;;;;29.48;33.33;100592.63;4951155;29;20039;-68
2022/05/14 09:40:20;;;;;;;1.70;0.70;;;;;;;29.52;32.70;100591.28;4954329;28;20023;-68
2022/05/14 09:43:08;;;;;;;2.60;0.52;;;;;;;29.62;33.38;100589.34;4957119;28;20045;-68
2022/05/14 09:45:36;;;;;;;3.42;0.60;;;;;;;29.90;32.96;100598.34;4967338;28;20066;-68
2022/05/14 09:48:17;;;;;;;3.65;0.60;;;;;;;29.61;30.51;100593.94;4968210;28;20141;-68
2022/05/14 09:50:46;;;;;;;2.72;0.70;;;;;;;29.71;30.64;100591.16;4969313;28;20031;-68
2022/05/14 09:53:11;;;;;;;1.88;0.63;;;;;;;29.31;30.69;100593.44;4971314;28;20026;-68
2022/05/14 09:55:37;;;;;;;1.13;0.40;;;;;;;29.46;32.03;100590.03;4973610;28;20027;-68
2022/05/14 09:58:15;;;;;;;3.63;0.60;;;;;;;29.42;33.63;100588.59;4974633;28;20426;-68
2022/05/14 10:01:05;;;;;;;2.47;0.50;;;;;;;29.89;35.02;100586.50;4973407;28;20030;-68
2022/05/14 10:03:44;;;;;;;1.40;0.52;;;;;;;30.30;32.84;100590.44;4973185;28;20026;-68
2022/05/14 10:06:37;;;;;;;2.70;0.50;;;;;;;29.57;32.92;100578.81;4972965;28;20537;-68
2022/05/14 10:09:15;;;;;;;1.65;0.60;;;;;;;29.99;31.85;100580.91;4973757;28;20118;-68
2022/05/14 10:11:50;;;;;;;1.75;0.50;;;;;;;29.88;32.31;100579.31;4975542;28;20027;-68
2022/05/14 10:14:32;;;;;;;3.38;0.90;;;;;;;30.30;32.98;100574.81;4974961;28;20026;-69
2022/05/14 10:17:35;;;;;;;3.07;0.60;;;;;;;30.49;30.92;100571.00;4969987;28;20545;-68
2022/05/14 10:20:33;;;;;;;3.83;0.52;;;;;;;30.39;29.74;100570.25;4974507;28;20031;-68
2022/05/14 10:26:46;;;;;;;1.80;0.60;;;;;;;30.64;28.96;100567.44;4951450;28;20418;-68
2022/05/14 10:29:18;;;;;;;3.50;0.75;;;;;;;31.21;31.01;100563.06;4974920;28;20043;-68
2022/05/14 10:32:09;;;;;;;1.42;0.60;;;;;;;31.40;29.99;100561.94;4972385;28;20386;-68
2022/05/14 10:35:15;;;;;;;2.95;0.73;;;;;;;31.82;30.39;100557.13;4975117;28;20023;-68
2022/05/14 10:37:54;;;;;;;2.53;0.63;;;;;;;31.33;27.28;100559.00;4974458;28;20038;-68
2022/05/14 10:40:30;;;;;;;0.90;0.40;;;;;;;31.35;28.31;100556.91;4973604;28;20034;-68
2022/05/14 10:43:33;;;;;;;1.17;0.70;;;;;;;31.07;28.42;100562.84;4974308;28;20095;-68
2022/05/14 10:46:04;;;;;;;2.20;0.90;;;;;;;31.04;29.47;100555.78;4974273;28;20030;-68
2022/05/14 10:48:41;;;;;;;2.40;0.60;;;;;;;31.44;29.26;100549.53;4972875;28;20051;-68
2022/05/14 10:51:10;;;;;;;3.72;0.60;;;;;;;31.64;29.56;100550.94;4963825;28;20047;-68
2022/05/14 10:53:39;;;;;;;1.65;0.60;;;;;;;32.01;30.18;100548.56;4975404;28;20386;-68
2022/05/14 10:56:10;;;;;;;3.65;0.60;;;;;;;32.59;30.26;100542.75;4976717;28;20023;-68
2022/05/14 10:59:13;;;;;;;3.47;0.60;;;;;;;32.30;27.32;100540.59;4974162;28;20394;-68
2022/05/14 11:01:46;;;;;;;3.70;0.82;;;;;;;32.27;28.83;100538.19;4973904;28;20023;-68
2022/05/14 11:04:23;;;;;;;1.33;0.50;;;;;;;32.93;26.83;100535.91;4973001;28;20057;-68
2022/05/14 11:06:58;;;;;;;2.95;0.70;;;;;;;32.16;27.14;100533.03;4973814;28;20042;-67
2022/05/14 11:09:46;;;;;;;3.50;0.40;;;;;;;32.46;27.99;100526.78;4972412;28;20665;-67
2022/05/14 11:12:32;;;;;;;2.38;0.60;;;;;;;32.85;27.54;100527.63;4971978;28;20053;-67
2022/05/14 11:15:00;;;;;;;0.70;0.30;;;;;;;33.14;27.37;100536.13;4972203;28;20041;-67
2022/05/14 11:17:32;;;;;;;0.52;0.43;;;;;;;32.63;24.09;100528.44;4962034;28;20380;-67
2022/05/14 11:20:04;;;;;;;0.95;0.50;;;;;;;32.53;26.58;100536.06;4968653;28;20061;-67
2022/05/14 11:22:36;;;;;;;1.50;0.68;;;;;;;32.82;26.17;100527.13;4971576;28;20034;-67
2022/05/14 11:25:22;;;;;;;1.10;0.53;;;;;;;33.41;27.21;100523.75;4967977;28;20082;-67
2022/05/14 11:27:58;;;;;;;0.80;0.73;;;;;;;33.94;25.20;100525.56;4971412;28;20516;-67
2022/05/14 11:30:41;;;;;;;1.95;0.85;;;;;;;33.12;23.85;100524.44;4972387;28;20027;-67
2022/05/14 11:33:24;;;;;;;1.27;0.45;;;;;;;33.07;25.05;100515.84;4972193;28;20022;-67
2022/05/14 11:35:57;;;;;;;2.00;0.50;;;;;;;33.34;25.68;100512.53;4955890;28;20031;-68
2022/05/14 11:38:26;;;;;;;2.50;0.70;;;;;;;32.98;23.51;100516.06;4955669;28;20027;-68
2022/05/14 11:41:01;;;;;;;1.25;0.30;;;;;;;32.85;24.65;100516.63;4946276;28;20098;-68
2022/05/14 11:43:42;;;;;;;5.68;1.20;;;;;;;33.49;24.52;100509.91;4968366;28;20065;-68
2022/05/14 11:46:23;;;;;;;0.73;0.30;;;;;;;33.85;23.60;100501.78;4964483;28;20034;-68
2022/05/14 11:49:31;;;;;;;1.10;0.55;;;;;;;34.23;23.03;100498.84;4973018;28;20090;-68
2022/05/14 11:52:28;;;;;;;0.95;0.40;;;;;;;33.95;25.47;100494.13;4944454;28;20039;-68